createdAt,value
2022-12-05T00:01:19.913Z,5.20
2022-12-05T00:03:48.198Z,5.20
2022-12-05T00:06:17.887Z,5.20
2022-12-05T00:08:48.093Z,5.20
2022-12-05T00:11:17.138Z,5.20
2022-12-05T00:13:44.918Z,5.20
2022-12-05T00:16:16.836Z,5.30
2022-12-05T00:18:46.150Z,5.30
2022-12-05T00:21:15.529Z,5.30
2022-12-05T00:23:42.634Z,5.30
2022-12-05T00:26:09.950Z,5.30
2022-12-05T00:28:41.472Z,5.40
2022-12-05T00:31:15.793Z,5.40
2022-12-05T00:33:43.502Z,5.30
2022-12-05T00:36:16.289Z,5.30
2022-12-05T00:38:43.226Z,5.30
2022-12-05T00:41:12.908Z,5.20
2022-12-05T00:43:40.077Z,5.30
2022-12-05T00:46:12.892Z,5.30
2022-12-05T00:48:40.595Z,5.20
2022-12-05T00:51:11.598Z,5.30
2022-12-05T00:53:38.498Z,5.20
2022-12-05T00:56:08.546Z,5.20
2022-12-05T00:58:35.978Z,5.30
2022-12-05T01:01:15.815Z,5.30
2022-12-05T01:03:45.783Z,5.30
2022-12-05T01:06:16.070Z,5.30
2022-12-05T01:08:43.625Z,5.40
2022-12-05T01:11:14.114Z,5.40
2022-12-05T01:13:43.314Z,5.30
2022-12-05T01:16:37.697Z,5.30
2022-12-05T01:19:17.678Z,5.30
2022-12-05T01:21:44.777Z,5.30
2022-12-05T01:24:12.182Z,5.30
2022-12-05T01:26:41.121Z,5.30
2022-12-05T01:29:07.867Z,5.30
2022-12-05T01:31:36.871Z,5.20
2022-12-05T01:34:08.147Z,5.20
2022-12-05T01:36:35.015Z,5.30
2022-12-05T01:39:05.021Z,5.30
2022-12-05T01:41:34.610Z,5.30
2022-12-05T01:44:08.919Z,5.30
2022-12-05T01:46:43.779Z,5.30
2022-12-05T01:49:15.282Z,5.30
2022-12-05T01:51:46.093Z,5.30
2022-12-05T01:54:16.829Z,5.30
2022-12-05T01:56:49.628Z,5.20
2022-12-05T01:59:18.692Z,5.30
2022-12-05T02:01:45.516Z,5.30
2022-12-05T02:04:12.378Z,5.20
2022-12-05T02:06:41.338Z,5.30
2022-12-05T02:09:07.970Z,5.20
2022-12-05T02:11:36.055Z,5.20
2022-12-05T02:14:26.885Z,5.30
2022-12-05T02:17:23.743Z,5.30
2022-12-05T02:20:07.014Z,5.30
2022-12-05T02:23:11.565Z,5.30
2022-12-05T02:25:38.258Z,5.40
2022-12-05T02:28:23.878Z,5.30
2022-12-05T02:31:01.239Z,5.30
2022-12-05T02:33:41.387Z,5.30
2022-12-05T02:36:21.985Z,5.30
2022-12-05T02:38:56.259Z,5.30
2022-12-05T02:41:27.732Z,5.30
2022-12-05T02:44:04.911Z,5.30
2022-12-05T02:46:34.243Z,5.30
2022-12-05T02:49:10.737Z,5.30
2022-12-05T02:51:47.072Z,5.30
2022-12-05T02:54:24.466Z,5.30
2022-12-05T02:56:53.038Z,5.30
2022-12-05T02:59:23.292Z,5.30
2022-12-05T03:01:51.002Z,5.40
2022-12-05T03:04:20.945Z,5.40
2022-12-05T03:07:02.313Z,5.40
2022-12-05T03:09:32.092Z,5.40
2022-12-05T03:12:22.182Z,5.30
2022-12-05T03:15:17.249Z,5.30
2022-12-05T03:18:00.506Z,5.30
2022-12-05T03:20:56.193Z,5.30
2022-12-05T03:23:30.748Z,5.30
2022-12-05T03:26:15.435Z,5.30
2022-12-05T03:29:03.778Z,5.20
2022-12-05T03:31:49.368Z,5.30
2022-12-05T03:34:29.070Z,5.30
2022-12-05T03:36:57.137Z,5.30
2022-12-05T03:39:30.576Z,5.30
2022-12-05T03:42:00.268Z,5.30
2022-12-05T03:44:34.805Z,5.40
2022-12-05T03:47:12.758Z,5.30
2022-12-05T03:49:54.510Z,5.30
2022-12-05T03:53:18.502Z,5.30
2022-12-05T03:55:44.603Z,5.20
2022-12-05T03:58:21.070Z,5.20
2022-12-05T04:00:54.108Z,5.20
2022-12-05T04:03:27.234Z,5.20
2022-12-05T04:06:03.749Z,5.10
2022-12-05T04:08:47.317Z,5.10
2022-12-05T04:11:20.909Z,5.10
2022-12-05T04:13:52.903Z,5.20
2022-12-05T04:16:39.818Z,5.20
2022-12-05T04:19:11.870Z,5.20
2022-12-05T04:21:45.289Z,5.30
2022-12-05T04:24:47.396Z,5.30
2022-12-05T04:27:28.670Z,5.30
2022-12-05T04:30:02.894Z,5.20
2022-12-05T04:32:43.195Z,5.20
2022-12-05T04:35:20.291Z,5.20
2022-12-05T04:37:51.090Z,5.20
2022-12-05T04:40:25.730Z,5.10
2022-12-05T04:42:56.036Z,5.10
2022-12-05T04:45:26.355Z,5.10
2022-12-05T04:48:01.219Z,5.10
2022-12-05T04:50:32.527Z,5.10
2022-12-05T04:53:03.057Z,5.10
2022-12-05T04:55:33.229Z,5.20
2022-12-05T04:58:16.879Z,5.20
2022-12-05T05:01:05.104Z,5.20
2022-12-05T05:03:59.943Z,5.20
2022-12-05T05:06:30.610Z,5.20
2022-12-05T05:08:58.449Z,5.20
2022-12-05T05:11:28.496Z,5.20
2022-12-05T05:13:58.139Z,5.20
2022-12-05T05:16:29.421Z,5.10
2022-12-05T05:18:57.031Z,5.10
2022-12-05T05:21:26.040Z,5.10
2022-12-05T05:23:55.735Z,5.10
2022-12-05T05:26:23.420Z,5.20
2022-12-05T05:28:55.729Z,5.20
2022-12-05T05:31:24.782Z,5.20
2022-12-05T05:33:56.811Z,5.20
2022-12-05T05:36:27.371Z,5.20
2022-12-05T05:38:56.752Z,5.20
2022-12-05T05:41:29.484Z,5.20
2022-12-05T05:43:57.722Z,5.20
2022-12-05T05:46:26.991Z,5.20
2022-12-05T05:48:53.974Z,5.20
2022-12-05T05:51:21.757Z,5.20
2022-12-05T05:53:50.940Z,5.20
2022-12-05T05:56:21.861Z,5.20
2022-12-05T05:58:54.946Z,5.10
2022-12-05T06:01:24.459Z,5.10
2022-12-05T06:03:51.625Z,5.10
2022-12-05T06:06:19.368Z,5.10
2022-12-05T06:08:48.934Z,5.10
2022-12-05T06:11:25.787Z,5.10
2022-12-05T06:13:57.603Z,5.20
2022-12-05T06:16:24.579Z,5.20
2022-12-05T06:18:52.605Z,5.20
2022-12-05T06:21:20.036Z,5.20
2022-12-05T06:23:47.004Z,5.20
2022-12-05T06:26:16.479Z,5.20
2022-12-05T06:28:44.376Z,5.10
2022-12-05T06:31:23.179Z,5.10
2022-12-05T06:33:53.620Z,5.10
2022-12-05T06:36:23.993Z,5.10
2022-12-05T06:38:50.673Z,5.10
2022-12-05T06:41:19.782Z,5.10
2022-12-05T06:43:49.194Z,5.10
2022-12-05T06:46:18.629Z,5.10
2022-12-05T06:48:47.893Z,5.20
2022-12-05T06:51:17.092Z,5.10
2022-12-05T06:53:46.470Z,6.30
2022-12-05T06:56:16.768Z,5.20
2022-12-05T06:58:45.193Z,5.20
2022-12-05T07:01:35.292Z,5.30
2022-12-05T07:04:02.747Z,5.20
2022-12-05T07:06:37.313Z,5.20
2022-12-05T07:09:05.183Z,5.10
2022-12-05T07:11:34.540Z,5.20
2022-12-05T07:14:10.206Z,5.10
2022-12-05T07:16:41.537Z,5.20
2022-12-05T07:19:09.275Z,5.20
2022-12-05T07:21:36.007Z,5.20
2022-12-05T07:24:02.751Z,5.20
2022-12-05T07:26:29.464Z,5.30
2022-12-05T07:28:57.938Z,5.30
2022-12-05T07:31:26.034Z,5.30
2022-12-05T07:33:52.842Z,5.30
2022-12-05T07:36:22.616Z,5.30
2022-12-05T07:38:54.238Z,5.40
2022-12-05T07:41:27.021Z,5.40
2022-12-05T07:43:55.696Z,5.40
2022-12-05T07:46:26.502Z,5.30
2022-12-05T07:48:53.511Z,5.30
2022-12-05T07:51:21.367Z,5.30
2022-12-05T07:53:50.811Z,5.30
2022-12-05T07:56:20.621Z,5.30
2022-12-05T07:58:50.951Z,5.30
2022-12-05T08:01:20.489Z,5.40
2022-12-05T08:03:48.258Z,5.40
2022-12-05T08:06:25.583Z,5.50
2022-12-05T08:08:55.210Z,5.50
2022-12-05T08:11:25.486Z,5.60
2022-12-05T08:13:53.161Z,5.70
2022-12-05T08:16:25.671Z,5.70
2022-12-05T08:19:05.536Z,5.70
2022-12-05T08:21:35.260Z,5.70
2022-12-05T08:24:07.113Z,5.70
2022-12-05T08:26:35.468Z,5.70
2022-12-05T08:29:06.509Z,5.70
2022-12-05T08:31:35.380Z,5.70
2022-12-05T08:34:05.536Z,5.70
2022-12-05T08:36:36.853Z,5.70
2022-12-05T08:39:06.196Z,5.80
2022-12-05T08:41:35.696Z,5.80
2022-12-05T08:44:06.629Z,5.80
2022-12-05T08:46:35.356Z,5.90
2022-12-05T08:49:03.205Z,6.00
2022-12-05T08:51:32.241Z,6.00
2022-12-05T08:54:01.060Z,6.00
2022-12-05T08:56:27.823Z,6.10
2022-12-05T08:59:03.170Z,6.10
2022-12-05T09:01:38.557Z,6.30
2022-12-05T09:04:05.937Z,6.30
2022-12-05T09:06:34.352Z,6.40
2022-12-05T09:09:05.750Z,6.40
2022-12-05T09:11:35.365Z,6.50
2022-12-05T09:14:05.191Z,6.50
2022-12-05T09:16:37.969Z,6.40
2022-12-05T09:19:06.984Z,6.50
2022-12-05T09:21:36.063Z,6.50
2022-12-05T09:24:04.937Z,6.50
2022-12-05T09:26:36.271Z,6.50
2022-12-05T09:29:03.435Z,6.50
2022-12-05T09:31:30.655Z,6.50
2022-12-05T09:33:57.711Z,6.50
2022-12-05T09:36:27.306Z,6.50
2022-12-05T09:38:57.384Z,6.50
2022-12-05T09:42:13.281Z,6.50
2022-12-05T09:45:01.841Z,6.50
2022-12-05T09:47:47.300Z,6.50
2022-12-05T09:50:29.956Z,6.50
2022-12-05T09:53:05.564Z,6.50
2022-12-05T09:55:54.963Z,6.50
2022-12-05T09:58:32.963Z,6.60
2022-12-05T10:01:10.691Z,6.60
2022-12-05T10:03:47.616Z,6.60
2022-12-05T10:06:33.543Z,6.70
2022-12-05T10:09:39.542Z,6.70
2022-12-05T10:12:45.788Z,6.80
2022-12-05T10:15:18.652Z,6.80
2022-12-05T10:17:52.467Z,6.80
2022-12-05T10:20:35.411Z,6.80
2022-12-05T10:23:28.170Z,6.80
2022-12-05T10:26:04.591Z,6.80
2022-12-05T10:28:51.537Z,6.90
2022-12-05T10:31:27.058Z,6.90
2022-12-05T10:34:04.184Z,7.10
2022-12-05T10:36:31.970Z,7.20
2022-12-05T10:38:59.322Z,7.30
2022-12-05T10:41:26.190Z,7.40
2022-12-05T10:43:58.924Z,7.60
2022-12-05T10:46:26.067Z,7.60
2022-12-05T10:48:52.790Z,7.60
2022-12-05T10:51:25.733Z,7.70
2022-12-05T10:53:53.501Z,7.60
2022-12-05T10:56:38.803Z,7.60
2022-12-05T10:59:09.963Z,7.60
2022-12-05T11:01:49.747Z,7.60
2022-12-05T11:04:31.558Z,7.60
2022-12-05T11:07:04.613Z,7.60
2022-12-05T11:09:37.476Z,7.70
2022-12-05T11:12:17.995Z,7.70
2022-12-05T11:15:16.902Z,7.80
2022-12-05T11:17:46.341Z,8.00
2022-12-05T11:20:18.699Z,8.00
2022-12-05T11:22:50.244Z,8.10
2022-12-05T11:25:31.119Z,8.90
2022-12-05T11:28:23.225Z,8.30
2022-12-05T11:31:04.871Z,8.30
2022-12-05T11:33:36.475Z,8.40
2022-12-05T11:36:22.936Z,8.50
2022-12-05T11:38:50.370Z,8.60
2022-12-05T11:41:57.599Z,8.60
2022-12-05T11:44:49.654Z,8.80
2022-12-05T11:47:37.758Z,8.90
2022-12-05T11:50:22.630Z,9.00
2022-12-05T11:53:07.651Z,9.10
2022-12-05T11:56:00.663Z,9.20
2022-12-05T11:58:56.395Z,9.30
2022-12-05T12:02:04.419Z,9.40
2022-12-05T12:05:01.707Z,9.40
2022-12-05T12:07:34.853Z,12.40
2022-12-05T12:10:26.172Z,9.30
2022-12-05T12:13:20.468Z,9.20
2022-12-05T12:16:10.333Z,9.20
2022-12-05T12:19:09.654Z,9.10
2022-12-05T12:22:18.477Z,9.10
2022-12-05T12:25:32.806Z,9.00
2022-12-05T12:28:32.609Z,9.00
2022-12-05T12:31:08.246Z,8.90
2022-12-05T12:33:57.466Z,8.90
2022-12-05T12:36:39.152Z,8.90
2022-12-05T12:39:27.161Z,8.90
2022-12-05T12:42:23.992Z,8.90
2022-12-05T12:45:02.849Z,8.90
2022-12-05T12:48:00.129Z,8.90
2022-12-05T12:50:31.926Z,8.90
2022-12-05T12:53:26.314Z,8.80
2022-12-05T12:56:04.777Z,8.90
2022-12-05T12:58:37.668Z,8.90
2022-12-05T13:01:33.708Z,8.90
2022-12-05T13:04:12.699Z,8.90
2022-12-05T13:06:55.505Z,9.00
2022-12-05T13:09:34.648Z,8.90
2022-12-05T13:12:16.071Z,9.00
2022-12-05T13:14:52.298Z,8.90
2022-12-05T13:17:22.048Z,8.90
2022-12-05T13:19:50.702Z,8.90
2022-12-05T13:22:22.287Z,8.90
2022-12-05T13:24:55.280Z,8.90
2022-12-05T13:27:25.217Z,8.90
2022-12-05T13:30:01.322Z,8.90
2022-12-05T13:32:40.269Z,8.90
2022-12-05T13:35:06.902Z,8.90
2022-12-05T13:37:53.303Z,8.90
2022-12-05T13:40:41.794Z,8.90
2022-12-05T13:43:10.032Z,8.90
2022-12-05T13:45:37.624Z,8.80
2022-12-05T13:48:19.282Z,8.80
2022-12-05T13:51:00.490Z,8.70
2022-12-05T13:53:43.914Z,8.70
2022-12-05T13:56:13.334Z,8.60
2022-12-05T13:58:47.852Z,8.50
2022-12-05T14:01:26.980Z,8.50
2022-12-05T14:04:04.192Z,8.50
2022-12-05T14:06:39.650Z,8.50
2022-12-05T14:09:18.732Z,8.50
2022-12-05T14:12:10.334Z,8.50
2022-12-05T14:14:55.526Z,8.50
2022-12-05T14:17:28.971Z,8.40
2022-12-05T14:20:33.321Z,8.40
2022-12-05T14:23:20.481Z,8.30
2022-12-05T14:26:17.249Z,8.30
2022-12-05T14:28:46.674Z,8.20
2022-12-05T14:31:31.591Z,8.10
2022-12-05T14:34:28.098Z,8.20
2022-12-05T14:36:56.430Z,8.20
2022-12-05T14:39:35.371Z,8.10
2022-12-05T14:42:15.912Z,8.20
2022-12-05T14:44:47.703Z,8.10
2022-12-05T14:47:25.911Z,8.10
2022-12-05T14:49:58.554Z,8.10
2022-12-05T14:52:30.232Z,8.00
2022-12-05T14:55:05.954Z,8.00
2022-12-05T14:57:35.263Z,7.90
2022-12-05T15:00:06.982Z,7.90
2022-12-05T15:02:45.920Z,7.80
2022-12-05T15:05:31.764Z,7.80
2022-12-05T15:08:00.340Z,7.80
2022-12-05T15:10:34.729Z,8.90
2022-12-05T15:13:04.928Z,7.80
2022-12-05T15:15:43.050Z,7.70
2022-12-05T15:18:31.315Z,7.70
2022-12-05T15:21:19.162Z,7.70
2022-12-05T15:23:45.877Z,7.70
2022-12-05T15:26:49.858Z,7.60
2022-12-05T15:29:28.664Z,7.60
2022-12-05T15:32:13.990Z,7.60
2022-12-05T15:35:05.658Z,7.50
2022-12-05T15:37:41.081Z,7.50
2022-12-05T15:40:07.742Z,7.50
2022-12-05T15:42:36.755Z,7.40
2022-12-05T15:45:15.433Z,7.40
2022-12-05T15:47:46.027Z,7.40
2022-12-05T15:50:36.190Z,7.40
2022-12-05T15:53:14.315Z,7.30
2022-12-05T15:55:58.773Z,7.30
2022-12-05T15:58:43.870Z,7.20
2022-12-05T16:01:22.711Z,7.20
2022-12-05T16:04:04.158Z,7.20
2022-12-05T16:06:39.278Z,7.20
2022-12-05T16:09:15.451Z,7.20
2022-12-05T16:11:53.879Z,7.10
2022-12-05T16:14:51.408Z,7.10
2022-12-05T16:17:18.145Z,7.10
2022-12-05T16:19:45.857Z,7.20
2022-12-05T16:22:12.483Z,7.20
2022-12-05T16:24:54.104Z,7.20
2022-12-05T16:27:35.330Z,7.20
2022-12-05T16:30:23.680Z,7.20
2022-12-05T16:33:12.754Z,7.20
2022-12-05T16:35:40.931Z,7.10
2022-12-05T16:38:13.378Z,7.10
2022-12-05T16:40:52.370Z,7.00
2022-12-05T16:43:27.374Z,7.00
2022-12-05T16:45:56.378Z,7.00
2022-12-05T16:48:29.202Z,7.00
2022-12-05T16:51:16.204Z,7.00
2022-12-05T16:53:47.256Z,7.00
2022-12-05T16:56:30.427Z,7.00
2022-12-05T16:58:58.139Z,7.00
2022-12-05T17:01:26.957Z,7.10
2022-12-05T17:03:54.870Z,7.10
2022-12-05T17:06:25.973Z,7.00
2022-12-05T17:08:55.250Z,6.90
2022-12-05T17:11:37.113Z,7.80
2022-12-05T17:14:03.977Z,9.40
2022-12-05T17:16:30.824Z,8.50
2022-12-05T17:18:59.959Z,8.00
2022-12-05T17:21:32.994Z,7.70
2022-12-05T17:24:00.605Z,7.40
2022-12-05T17:26:29.659Z,7.30
2022-12-05T17:28:56.818Z,7.20
2022-12-05T17:31:25.253Z,7.20
2022-12-05T17:33:53.890Z,7.20
2022-12-05T17:36:23.141Z,7.20
2022-12-05T17:38:49.887Z,7.10
2022-12-05T17:41:22.839Z,7.10
2022-12-05T17:43:51.235Z,7.10
2022-12-05T17:46:23.428Z,7.10
2022-12-05T17:48:53.702Z,7.10
2022-12-05T17:51:23.683Z,7.10
2022-12-05T17:53:52.842Z,7.10
2022-12-05T17:56:19.726Z,7.10
2022-12-05T17:58:48.692Z,7.00
2022-12-05T18:01:18.589Z,7.10
2022-12-05T18:03:50.270Z,7.10
2022-12-05T18:06:17.487Z,7.20
2022-12-05T18:08:45.181Z,7.10
2022-12-05T18:11:13.468Z,7.10
2022-12-05T18:13:42.666Z,7.10
2022-12-05T18:16:09.654Z,7.10
2022-12-05T18:18:36.429Z,7.00
2022-12-05T18:21:09.950Z,7.00
2022-12-05T18:23:37.757Z,7.00
2022-12-05T18:26:08.677Z,7.00
2022-12-05T18:28:39.800Z,7.10
2022-12-05T18:31:11.346Z,7.10
2022-12-05T18:33:40.699Z,7.00
2022-12-05T18:36:17.144Z,7.00
2022-12-05T18:38:50.345Z,7.00
2022-12-05T18:41:17.155Z,7.00
2022-12-05T18:43:43.884Z,7.00
2022-12-05T18:46:10.571Z,6.90
2022-12-05T18:48:42.582Z,7.00
2022-12-05T18:51:23.219Z,6.90
2022-12-05T18:53:52.697Z,6.90
2022-12-05T18:56:26.456Z,6.90
2022-12-05T18:58:55.892Z,7.00
2022-12-05T19:01:25.518Z,7.00
2022-12-05T19:03:52.703Z,7.00
2022-12-05T19:06:24.640Z,7.00
2022-12-05T19:08:55.362Z,7.00
2022-12-05T19:11:22.942Z,7.00
2022-12-05T19:13:49.943Z,6.90
2022-12-05T19:16:18.430Z,6.90
2022-12-05T19:18:56.119Z,6.90
2022-12-05T19:21:24.701Z,6.90
2022-12-05T19:23:51.542Z,6.90
2022-12-05T19:26:18.354Z,6.90
2022-12-05T19:28:45.074Z,6.80
2022-12-05T19:31:16.494Z,6.80
2022-12-05T19:33:50.135Z,6.80
2022-12-05T19:36:19.807Z,6.90
2022-12-05T19:38:50.689Z,6.80
2022-12-05T19:41:21.640Z,6.90
2022-12-05T19:43:50.772Z,6.90
2022-12-05T19:46:20.805Z,6.90
2022-12-05T19:48:48.297Z,6.80
2022-12-05T19:51:15.062Z,6.80
2022-12-05T19:53:47.695Z,6.80
2022-12-05T19:56:14.410Z,6.80
2022-12-05T19:58:41.488Z,6.80
2022-12-05T20:01:16.915Z,6.80
2022-12-05T20:03:49.157Z,6.80
2022-12-05T20:06:21.370Z,6.80
2022-12-05T20:08:48.793Z,6.80
2022-12-05T20:11:18.194Z,6.80
2022-12-05T20:13:48.366Z,6.80
2022-12-05T20:16:18.936Z,6.90
2022-12-05T20:18:48.510Z,6.90
2022-12-05T20:21:17.606Z,6.80
2022-12-05T20:23:45.423Z,6.80
2022-12-05T20:26:13.221Z,6.90
2022-12-05T20:28:40.288Z,6.80
2022-12-05T20:31:12.035Z,6.80
2022-12-05T20:33:39.405Z,6.80
2022-12-05T20:36:12.037Z,6.90
2022-12-05T20:38:39.472Z,6.80
2022-12-05T20:41:10.950Z,6.80
2022-12-05T20:43:38.096Z,6.90
2022-12-05T20:46:06.662Z,9.20
2022-12-05T20:48:33.884Z,6.90
2022-12-05T20:51:08.219Z,7.00
2022-12-05T20:53:39.792Z,6.90
2022-12-05T20:56:23.024Z,9.00
2022-12-05T20:58:51.461Z,6.90
2022-12-05T21:01:20.157Z,6.80
2022-12-05T21:03:49.720Z,6.80
2022-12-05T21:06:25.200Z,6.80
2022-12-05T21:08:58.164Z,6.70
2022-12-05T21:11:30.781Z,6.70
2022-12-05T21:14:04.976Z,6.60
2022-12-05T21:16:32.063Z,6.60
2022-12-05T21:18:59.772Z,6.60
2022-12-05T21:21:28.051Z,6.60
2022-12-05T21:23:57.437Z,6.60
2022-12-05T21:26:25.853Z,6.80
2022-12-05T21:28:55.754Z,6.80
2022-12-05T21:31:31.766Z,6.70
2022-12-05T21:34:04.341Z,6.60
2022-12-05T21:36:33.283Z,6.60
2022-12-05T21:39:00.433Z,6.50
2022-12-05T21:41:29.961Z,6.50
2022-12-05T21:43:56.606Z,6.50
2022-12-05T21:46:24.750Z,6.50
2022-12-05T21:48:51.588Z,6.50
2022-12-05T21:51:18.682Z,6.40
2022-12-05T21:53:47.576Z,6.50
2022-12-05T21:56:18.753Z,6.50
2022-12-05T21:58:48.838Z,6.60
2022-12-05T22:01:24.147Z,6.40
2022-12-05T22:03:52.951Z,6.50
2022-12-05T22:06:19.998Z,6.50
2022-12-05T22:08:49.064Z,6.40
2022-12-05T22:11:21.435Z,6.40
2022-12-05T22:13:51.252Z,6.30
2022-12-05T22:16:18.444Z,6.30
2022-12-05T22:18:45.688Z,6.30
2022-12-05T22:21:19.797Z,6.30
2022-12-05T22:23:49.670Z,6.30
2022-12-05T22:26:19.445Z,6.30
2022-12-05T22:28:46.569Z,6.30
2022-12-05T22:31:17.699Z,6.30
2022-12-05T22:33:45.283Z,6.30
2022-12-05T22:36:14.125Z,7.00
2022-12-05T22:38:45.494Z,6.30
2022-12-05T22:41:20.967Z,6.30
2022-12-05T22:43:51.880Z,6.30
2022-12-05T22:46:20.245Z,6.20
2022-12-05T22:48:48.942Z,6.20
2022-12-05T22:51:16.458Z,6.20
2022-12-05T22:53:43.926Z,6.20
2022-12-05T22:56:16.423Z,6.10
2022-12-05T22:58:46.777Z,6.00
2022-12-05T23:01:25.305Z,6.00
2022-12-05T23:04:10.778Z,6.10
2022-12-05T23:06:40.836Z,6.10
2022-12-05T23:09:14.102Z,6.10
2022-12-05T23:11:40.833Z,6.10
2022-12-05T23:14:07.527Z,6.10
2022-12-05T23:16:34.935Z,6.10
2022-12-05T23:19:06.072Z,6.10
2022-12-05T23:21:40.199Z,6.10
2022-12-05T23:24:11.662Z,6.10
2022-12-05T23:26:41.517Z,6.00
2022-12-05T23:29:08.730Z,6.10
2022-12-05T23:31:35.425Z,6.00
2022-12-05T23:34:03.918Z,6.00
2022-12-05T23:36:35.087Z,6.00
2022-12-05T23:39:02.212Z,6.00
2022-12-05T23:41:31.313Z,6.00
2022-12-05T23:43:58.039Z,6.00
2022-12-05T23:46:26.370Z,6.10
2022-12-05T23:48:53.408Z,6.10
2022-12-05T23:51:27.915Z,6.10
2022-12-05T23:53:57.712Z,6.10
2022-12-05T23:56:27.096Z,6.10
2022-12-05T23:58:54.893Z,6.00
